Gulf - Port au Port: Past 24 Hour Conditions

 

St. Lawrence

02:30 PM NDT 20 October 2014
This table is a summary of hourly weather conditions for the past 24 hours.
Date / Time
(NDT)
Wind(knots) Conditions Visibility(km) Pressure(kPa) Air tempC) Relative humidity(%) Dew pointC)
20 October 2014
14:30 WSW 27 gust 33 N/A N/A 99.9 12 87 10
13:30 SW 28 gust 38 N/A N/A 99.8 13 83 10
12:30 SW 19 gust 28 N/A N/A 99.8 14 87 12
11:30 SW 22 gust 34 N/A N/A 99.7 14 90 12
10:30 SW 23 gust 37 N/A N/A 99.6 15 94 14
9:30 SSE 27 gust 43 N/A N/A 99.5 16 95 16
8:30 SSE 28 gust 45 N/A N/A 99.7 17 97 16
7:30 SSE 21 gust 26 N/A N/A 99.7 15 97 14
6:30 SE 23 gust 35 N/A N/A 99.8 15 96 15
5:30 SSE 19 gust 25 N/A N/A 100.0 15 97 14
4:30 SSE 19 gust 24 N/A N/A 100.1 15 97 14
3:30 SE 19 N/A N/A 100.2 15 97 14
2:30 SSE 17 gust 25 N/A N/A 100.3 14 97 14
1:30 ESE 13 N/A N/A 100.4 14 97 13
0:30 SE 6 N/A N/A 100.6 13 97 13
19 October 2014
23:30 ESE 6 N/A N/A 100.7 13 97 13
22:30 E 7 N/A N/A 100.8 13 97 13
21:30 E 6 N/A N/A 100.8 13 96 12
20:30 ESE 4 N/A N/A 100.9 13 96 12
19:30 S 4 N/A N/A 100.9 13 95 12
18:30 SW 10 N/A N/A 100.8 13 95 12
17:30 WSW 12 gust 17 N/A N/A 100.8 13 94 12
16:30 WSW 15 gust 23 N/A N/A 100.7 13 95 12
15:30 WSW 16 gust 25 N/A N/A 100.6 13 95 12
14:30 WSW 21 gust 27 N/A N/A 100.5 14 94 13
 
Map of Atlantic - Newfoundland marine weather areas Southwestern Grand Banks - 44138 Banquereau - 44139 Tail of the Bank - 44140 Nickerson Bank - 44251 Northeast Burgeo Bank - 44255 Blanc-Sablon Airport Cap Whittle Chevery Natashquan Airport Heath Point Miscou Island Grand Étang Ingonish Beach North Mountain St.Paul Island J.A. Douglas McCurdy Sydney Airport Charlottetown Airport East Point North Cape Argentia Bonavista Burgeo Cape Race Corner Brook Daniel's Harbour Englee Ferolle Point La Scie Port aux Basques Rocky Harbour Sagona Island St. Anthony Airport St. John's Int'l Airport St. Lawrence Stephenville Airport Twillingate Winterland Wreckhouse Cartwright Airport Mary's Harbour Grates Cove Pool's Island Marticot Island Long Pond Îles de la Madeleine Airport
Legend: buoyBuoy land stationLand Station